TLSO2: Arkansas River, Tulsa, OK

                                SHEF ID:       TLSO2     Arkansas River at Tulsa, OK
STATION TYPE: Stream Gauge
Regulating: Stage = 15.00, Flow = 96489

PRECIP STAGE STAGE(2) RIV-FLOW WTR-TEMP DIS-OXY BAT-LOAD
in ft ft cfs F mg/l volt
Ccp-Rev Ccp-Rev Ccp-Rev Ccp-Rev Ccp-Rev Ccp-Rev Ccp-Rev
(America/Chicago)
02/15 00:00 0.00 4.12 ---- 3865 51.57 12.71 ----
02/15 01:00 0.00 4.13 ---- 3908 51.69 12.63 ----
02/15 02:00 0.00 4.17 ---- 4082 51.71 12.45 ----
02/15 03:00 0.00 4.16 ---- 4038 51.71 12.48 ----
02/15 04:00 0.00 4.19 ---- 4170 51.80 12.01 ----
02/15 05:00 0.00 4.19 ---- 4170 51.71 11.67 ----
02/15 06:00 0.00 4.21 ---- 4260 51.58 11.22 ----
02/15 07:00 0.00 4.22 ---- 4306 51.39 11.13 ----
02/15 08:00 0.00 4.24 ---- 4397 51.33 11.11 ----
02/15 09:00 0.00 4.20 ---- 4215 51.44 11.41 ----
02/15 10:00 0.00 4.13 ---- 3908 51.44 11.13 ----
02/15 11:00 0.00 4.06 ---- 3613 51.55 11.79 ----
02/15 12:00 0.00 4.02 ---- 3451 51.89 12.56 ----
02/15 13:00 0.00 3.92 ---- 3064 52.25 12.85 ----
02/15 14:00 0.00 3.88 ---- 2916 53.20 14.35 ----
02/15 15:00 0.00 3.79 ---- 2600 52.95 14.46 ----
02/15 16:00 0.00 3.76 ---- 2499 52.79 13.74 ----
02/15 17:00 0.00 3.69 ---- 2272 53.15 13.45 ----
02/15 18:00 0.00 3.62 ---- 2058 53.26 13.33 ----
02/15 19:00 0.00 3.62 ---- 2058 53.60 13.09 ----
02/15 20:00 0.00 3.67 ---- 2210 54.41 11.64 ----
02/15 21:00 0.00 3.71 ---- 2336 54.81 9.74 ----
02/15 22:00 0.00 3.73 ---- 2400 54.81 9.27 ----
02/15 23:00 0.00 3.75 ---- 2466 54.90 11.30 ----
Data processed at Mon 16Feb2026 05:48 GMT

NOTICE: If you are parsing this page

Please convert to using our Data API. Starting early 2026 we will be migrating to: https://water.usace.army.mil with modern pages rendered in JavaScript. When this migration completes you will no longer be able to scrape this page! CWMSDataAPI (CDA)

Timeseries IDs (TSIDs)

TSIDs used from left to right in the data table
TULA.Precip-Inc.Total.1Hour.1Hour.Ccp-Rev
TULA.Stage.Inst.1Hour.0.Ccp-Rev
TULA.Stage-Alt.Inst.1Hour.0.Ccp-Rev
TULA.Flow.Inst.1Hour.0.Ccp-Rev
TULA.Temp-Water.Inst.1Hour.0.Ccp-Rev
TULA.Conc-DO.Inst.1Hour.0.Ccp-Rev
TULA.Volt-Battery Load.Inst.1Hour.0.Ccp-Rev

                            

All information presented herein is the property of the government of the United States of America and may be revised or deleted at any time without prior notice. Dissemination of this information without the expressed written consent of the Public Affairs Office, Tulsa District U.S. Army Corps of Engineers is strictly prohibited. These data are gathered electronically and, as presented, have NOT undergone any form of quality control. These data are NOT guaranteed to be valid or correct.